Time;durP1;ratioP1;P1;durP2;ratioP2;P2;SDS_P1;SDS_P2;PMS_P1;PMS_P2;Temp;Humidity;BMP_temperature;BMP_pressure;BME280_temperature;BME280_humidity;BME280_pressure;Samples;Min_cycle;Max_cycle;Signal;HPM_P1;HPM_P2
2021/12/29 04:30:10;;;;;;;1.15;0.20;;;9.20;99.90;;;;;;6211763;23;20013;-82
2021/12/29 04:32:46;;;;;;;1.57;0.30;;;9.10;99.90;;;;;;6211736;23;20029;-83
2021/12/29 04:35:23;;;;;;;1.38;0.25;;;9.10;99.90;;;;;;6211330;23;20028;-82
2021/12/29 04:38:05;;;;;;;1.05;0.20;;;9.20;99.90;;;;;;6186668;23;20052;-83
2021/12/29 04:40:42;;;;;;;1.05;0.30;;;9.20;99.90;;;;;;6188709;23;20542;-83
2021/12/29 04:47:29;;;;;;;1.50;0.27;;;9.20;99.90;;;;;;6228585;22;20084;-82
2021/12/29 06:07:46;;;;;;;1.48;0.32;;;9.30;99.90;;;;;;6229219;22;20012;-83
2021/12/29 06:11:46;;;;;;;1.70;0.38;;;9.30;99.90;;;;;;6154296;23;20028;-84
2021/12/29 07:44:17;;;;;;;1.02;0.28;;;9.20;99.90;;;;;;6207764;22;20079;-79
2021/12/29 08:08:47;;;;;;;1.30;0.30;;;9.70;99.90;;;;;;6226848;22;20024;-80
2021/12/29 08:20:39;;;;;;;1.50;0.55;;;9.70;99.90;;;;;;6233984;22;20020;-80
2021/12/29 08:23:11;;;;;;;1.37;0.30;;;9.70;99.90;;;;;;6208169;23;20023;-79
2021/12/29 08:25:42;;;;;;;1.20;0.30;;;9.70;99.90;;;;;;6223560;22;20016;-79
2021/12/29 08:41:26;;;;;;;0.93;0.20;;;9.90;99.90;;;;;;6251475;22;19915;-80
2021/12/29 08:43:55;;;;;;;1.40;0.40;;;9.90;99.90;;;;;;6229230;23;20086;-80
2021/12/29 08:46:23;;;;;;;1.35;0.30;;;9.80;99.90;;;;;;6238318;23;20026;-81
2021/12/29 08:48:53;;;;;;;1.58;0.35;;;9.80;99.90;;;;;;6266454;22;20016;-81
2021/12/29 08:51:58;;;;;;;1.40;0.40;;;9.80;99.90;;;;;;6247109;22;20055;-80
2021/12/29 08:58:31;;;;;;;1.42;0.10;;;9.90;99.90;;;;;;6211310;23;20031;-79
2021/12/29 09:04:07;;;;;;;1.10;0.32;;;9.90;99.90;;;;;;6295089;22;20019;-80
2021/12/29 09:44:26;;;;;;;3.65;0.55;;;9.60;99.90;;;;;;6281979;22;20011;-82
2021/12/29 09:59:39;;;;;;;1.70;0.47;;;9.80;99.90;;;;;;6230514;22;20122;-83
2021/12/29 10:11:36;;;;;;;1.75;0.50;;;9.90;99.90;;;;;;6283844;22;20031;-83
2021/12/29 10:18:29;;;;;;;2.03;0.52;;;9.90;99.90;;;;;;6227611;22;20031;-80
2021/12/29 10:21:26;;;;;;;2.33;0.50;;;9.80;99.90;;;;;;6300690;22;20051;-80
2021/12/29 10:27:23;;;;;;;1.45;0.30;;;9.50;99.90;;;;;;6295714;22;20020;-81
2021/12/29 10:54:32;;;;;;;1.90;0.67;;;9.70;99.90;;;;;;6240155;22;20029;-78
2021/12/29 10:57:04;;;;;;;2.47;0.90;;;9.60;99.90;;;;;;6268293;22;20038;-79
2021/12/29 11:02:37;;;;;;;4.47;1.17;;;9.60;99.90;;;;;;6328673;22;20027;-80
2021/12/29 11:05:12;;;;;;;3.00;0.85;;;9.60;99.90;;;;;;6268265;22;20102;-79
2021/12/29 11:46:04;;;;;;;2.15;0.85;;;9.90;99.90;;;;;;6242044;22;19904;-80
2021/12/29 12:26:50;;;;;;;2.67;0.85;;;10.30;99.90;;;;;;6276722;22;20295;-79
2021/12/29 12:29:21;;;;;;;4.53;1.13;;;10.30;99.90;;;;;;6252564;22;20020;-79
2021/12/29 13:34:39;;;;;;;2.63;0.90;;;10.20;99.90;;;;;;6253535;22;20011;-81
2021/12/29 14:38:12;;;;;;;4.60;0.95;;;10.10;99.90;;;;;;6287103;22;19918;-82
2021/12/29 14:40:42;;;;;;;3.93;1.07;;;10.20;99.90;;;;;;6255563;22;20039;-80
2021/12/29 16:26:33;;;;;;;5.82;1.98;;;10.40;99.90;;;;;;6227068;22;20008;-82
2021/12/29 16:29:08;;;;;;;4.47;1.67;;;10.30;99.90;;;;;;6284097;22;20087;-80
2021/12/29 16:38:09;;;;;;;5.00;2.20;;;10.20;99.90;;;;;;6240562;22;20020;-84
2021/12/29 16:55:26;;;;;;;8.52;1.70;;;10.30;99.90;;;;;;6252633;22;20011;-85
2021/12/29 17:10:31;;;;;;;4.72;1.50;;;10.50;99.90;;;;;;6231478;22;20023;-85
2021/12/29 19:51:44;;;;;;;6.47;2.30;;;;;;;;;;5104903;27;20824;-80
2021/12/29 19:54:15;;;;;;;6.40;2.27;;;;;;;;;;5118046;28;20119;-80
2021/12/29 19:57:03;;;;;;;4.55;1.30;;;11.20;99.90;;;;;;5236171;22;20116;-79
2021/12/29 19:59:32;;;;;;;3.42;1.73;;;11.20;99.90;;;;;;5076940;28;20048;-81
2021/12/29 20:02:00;;;;;;;3.65;1.63;;;11.20;99.90;;;;;;5087078;28;20029;-80
2021/12/29 20:04:30;;;;;;;5.25;1.88;;;11.10;99.90;;;;;;5071904;28;20531;-79
2021/12/29 20:07:22;;;;;;;4.73;1.73;;;11.00;99.90;;;;;;5096454;22;20064;-81
2021/12/29 20:09:51;;;;;;;4.05;2.03;;;10.90;99.90;;;;;;5039014;28;20045;-75
2021/12/29 20:12:20;;;;;;;4.20;1.55;;;10.80;99.90;;;;;;5040483;28;80094;-78
2021/12/29 20:14:48;;;;;;;4.63;2.05;;;10.60;99.90;;;;;;5055841;28;20048;-77
2021/12/29 20:17:18;;;;;;;7.03;2.08;;;10.60;99.90;;;;;;5059718;28;20356;-78
2021/12/29 20:19:47;;;;;;;3.93;1.97;;;10.60;99.90;;;;;;5078902;28;20122;-76
2021/12/29 20:22:42;;;;;;;6.20;1.95;;;10.50;99.90;;;;;;5067090;28;20452;-76
2021/12/29 20:25:12;;;;;;;7.85;2.05;;;10.50;99.90;;;;;;5079784;28;20177;-76
2021/12/29 20:27:41;;;;;;;6.97;2.10;;;10.50;99.90;;;;;;5074270;28;20219;-75
2021/12/29 20:30:12;;;;;;;4.78;1.88;;;10.50;99.90;;;;;;5071448;28;20493;-75
2021/12/29 20:32:42;;;;;;;7.07;1.97;;;10.50;99.90;;;;;;5056354;28;20154;-76
2021/12/29 20:35:12;;;;;;;4.82;2.38;;;10.40;99.90;;;;;;5067112;28;20084;-75
2021/12/29 20:37:42;;;;;;;3.78;2.00;;;10.40;99.90;;;;;;5075312;28;20052;-75
2021/12/29 20:40:14;;;;;;;5.85;2.08;;;10.40;99.90;;;;;;5082525;28;20059;-76
2021/12/29 20:42:43;;;;;;;4.32;1.90;;;10.40;99.90;;;;;;5078611;28;20484;-76
2021/12/29 20:45:13;;;;;;;5.83;2.37;;;10.50;99.90;;;;;;5071463;28;20131;-75
2021/12/29 20:47:42;;;;;;;5.25;2.38;;;10.40;99.90;;;;;;5066106;28;20154;-75
2021/12/29 20:50:12;;;;;;;4.72;2.22;;;10.40;99.90;;;;;;5069348;28;20072;-75
2021/12/29 20:52:44;;;;;;;4.65;2.00;;;10.40;99.90;;;;;;5055026;28;20051;-75
2021/12/29 20:55:14;;;;;;;4.72;1.90;;;10.40;99.90;;;;;;5063207;28;20119;-76
2021/12/29 20:57:48;;;;;;;6.93;2.17;;;10.40;99.90;;;;;;5073464;28;20047;-76
2021/12/29 21:00:17;;;;;;;4.35;2.05;;;10.30;99.90;;;;;;5049537;28;20121;-80
2021/12/29 21:02:47;;;;;;;5.80;2.83;;;10.30;99.90;;;;;;5058826;28;20084;-79
2021/12/29 21:05:15;;;;;;;4.00;1.98;;;10.30;99.90;;;;;;5070739;28;20389;-79
2021/12/29 21:07:48;;;;;;;6.32;2.17;;;10.30;99.90;;;;;;5038606;28;20052;-76
2021/12/29 21:10:36;;;;;;;5.33;2.00;;;10.10;99.90;;;;;;5071164;28;20045;-79
2021/12/29 21:13:15;;;;;;;4.72;2.42;;;10.30;99.90;;;;;;5072314;28;20102;-74
2021/12/29 21:15:43;;;;;;;4.60;2.42;;;10.30;99.90;;;;;;5065642;28;20049;-74
2021/12/29 21:18:12;;;;;;;4.40;1.92;;;10.40;99.90;;;;;;5042870;28;20051;-75
2021/12/29 21:20:41;;;;;;;3.60;2.17;;;10.30;99.90;;;;;;5049462;28;20044;-75
2021/12/29 21:23:12;;;;;;;4.33;2.37;;;10.40;99.90;;;;;;5049814;28;20040;-75
2021/12/29 21:25:44;;;;;;;4.95;2.63;;;10.40;99.90;;;;;;5066317;28;20052;-75
2021/12/29 21:28:13;;;;;;;5.82;2.70;;;10.40;99.90;;;;;;5059024;28;20093;-75
2021/12/29 21:30:44;;;;;;;4.90;2.75;;;10.40;99.90;;;;;;5050636;28;20045;-75
2021/12/29 21:33:14;;;;;;;6.90;2.75;;;10.40;99.90;;;;;;5064619;28;20399;-75
2021/12/29 21:35:43;;;;;;;6.47;2.87;;;10.30;99.90;;;;;;5066489;28;20055;-76
2021/12/29 21:38:13;;;;;;;5.65;2.55;;;10.40;99.90;;;;;;5050170;28;20063;-76
2021/12/29 21:40:42;;;;;;;5.70;2.40;;;10.30;99.90;;;;;;5066792;28;20332;-75
2021/12/29 21:43:11;;;;;;;5.30;2.33;;;10.30;99.90;;;;;;5048393;28;20161;-75
2021/12/29 21:45:40;;;;;;;6.53;2.47;;;10.30;99.90;;;;;;5057039;28;20117;-76
2021/12/29 21:48:10;;;;;;;5.33;2.83;;;10.30;99.90;;;;;;5060459;28;20131;-75
2021/12/29 21:50:39;;;;;;;4.40;2.42;;;10.30;99.90;;;;;;5059575;28;20091;-75
2021/12/29 21:53:10;;;;;;;5.47;2.85;;;10.40;99.90;;;;;;5052065;28;20079;-76
2021/12/29 21:55:40;;;;;;;6.32;2.90;;;10.30;99.90;;;;;;5046308;28;20127;-74
2021/12/29 21:58:11;;;;;;;4.97;2.53;;;10.30;99.90;;;;;;5014007;28;20512;-75
2021/12/29 22:00:44;;;;;;;5.53;2.63;;;10.30;99.90;;;;;;5048260;28;20483;-74
2021/12/29 22:03:14;;;;;;;6.28;2.90;;;10.30;99.90;;;;;;5047653;28;20057;-75
2021/12/29 22:08:35;;;;;;;6.68;3.10;;;10.40;99.90;;;;;;5066339;28;20055;-76
2021/12/29 22:11:06;;;;;;;6.32;2.92;;;10.40;99.90;;;;;;5063297;28;20059;-75
2021/12/29 22:13:34;;;;;;;6.20;3.00;;;10.40;99.90;;;;;;5060494;28;20044;-74
2021/12/29 22:16:06;;;;;;;5.05;2.67;;;10.40;99.90;;;;;;5064122;28;20044;-75
2021/12/29 22:18:37;;;;;;;5.95;2.58;;;10.40;99.90;;;;;;5059510;28;20136;-75
2021/12/29 22:21:06;;;;;;;5.75;3.20;;;10.40;99.90;;;;;;5066694;28;20056;-75
2021/12/29 22:31:11;;;;;;;6.88;2.90;;;10.40;99.90;;;;;;5045836;28;20048;-75
2021/12/29 22:33:40;;;;;;;5.82;2.95;;;10.40;99.90;;;;;;5045923;28;20495;-76
2021/12/29 22:36:12;;;;;;;4.85;2.60;;;10.40;99.90;;;;;;5045713;28;20129;-75
2021/12/29 22:38:43;;;;;;;5.95;2.90;;;10.30;99.90;;;;;;5050288;28;20415;-75
2021/12/29 22:41:14;;;;;;;5.27;2.40;;;10.30;99.90;;;;;;5049991;28;20049;-75
2021/12/29 22:43:51;;;;;;;5.68;2.55;;;10.40;99.90;;;;;;5045057;28;20048;-76
2021/12/29 22:46:25;;;;;;;6.65;3.20;;;10.50;99.90;;;;;;5064231;28;20136;-76
2021/12/29 22:48:53;;;;;;;7.22;3.00;;;10.40;99.90;;;;;;5047338;28;20047;-74
2021/12/29 22:51:22;;;;;;;6.78;2.70;;;10.50;99.90;;;;;;5055491;28;20045;-76
2021/12/29 22:53:52;;;;;;;6.90;3.13;;;10.50;99.90;;;;;;5058712;28;20139;-76
2021/12/29 22:56:21;;;;;;;5.88;2.83;;;10.50;99.90;;;;;;5065731;28;20407;-76
2021/12/29 22:58:50;;;;;;;6.28;2.95;;;10.50;99.90;;;;;;5046171;28;20123;-75
2021/12/29 23:01:23;;;;;;;6.68;2.80;;;10.50;99.90;;;;;;5068817;28;20439;-75
2021/12/29 23:03:53;;;;;;;6.57;3.30;;;10.60;99.90;;;;;;5068478;28;20044;-75
2021/12/29 23:06:25;;;;;;;5.47;2.80;;;10.60;99.90;;;;;;5060141;28;20045;-76
2021/12/29 23:08:54;;;;;;;6.90;3.10;;;10.60;99.90;;;;;;5069978;28;20350;-76
2021/12/29 23:11:24;;;;;;;6.72;2.95;;;10.60;99.90;;;;;;5061458;28;20052;-75
2021/12/29 23:14:00;;;;;;;6.20;2.58;;;10.60;99.90;;;;;;5061180;28;20128;-75
2021/12/29 23:16:32;;;;;;;7.15;3.13;;;10.50;99.90;;;;;;5069608;28;20362;-76
2021/12/29 23:19:01;;;;;;;6.73;2.60;;;10.60;99.90;;;;;;5056922;28;20136;-75
2021/12/29 23:21:31;;;;;;;6.65;2.72;;;10.50;99.90;;;;;;5046501;28;20513;-76
2021/12/29 23:24:03;;;;;;;7.70;3.10;;;10.50;99.90;;;;;;5057304;28;20087;-75
2021/12/29 23:28:11;;;;;;;6.38;2.67;;;10.70;99.90;;;;;;5063425;28;20068;-75
2021/12/29 23:29:27;;;;;;;7.88;2.88;;;10.70;99.90;;;;;;5056929;28;20055;-75
2021/12/29 23:31:58;;;;;;;5.20;2.37;;;10.70;99.90;;;;;;5057657;28;20073;-75
2021/12/29 23:34:27;;;;;;;6.75;2.90;;;10.70;99.90;;;;;;5068051;28;20080;-75
2021/12/29 23:36:56;;;;;;;5.40;2.25;;;10.80;99.90;;;;;;5040802;28;20057;-75
2021/12/29 23:42:18;;;;;;;6.95;2.78;;;10.80;99.90;;;;;;5053270;28;20048;-76
2021/12/29 23:44:51;;;;;;;4.47;2.13;;;10.80;99.90;;;;;;5051452;28;20593;-76
2021/12/29 23:47:20;;;;;;;5.68;2.45;;;10.90;99.90;;;;;;5058311;28;20049;-76
2021/12/29 23:49:49;;;;;;;4.72;2.03;;;10.90;99.90;;;;;;5055704;28;20049;-76
2021/12/29 23:52:18;;;;;;;4.70;2.22;;;10.90;99.90;;;;;;5046604;28;20056;-75
2021/12/29 23:54:46;;;;;;;3.80;2.13;;;10.90;99.90;;;;;;5056552;28;20045;-75
2021/12/29 23:57:15;;;;;;;4.80;2.23;;;10.90;99.90;;;;;;5062013;28;20136;-76
2021/12/29 23:59:44;;;;;;;5.22;1.85;;;10.90;99.90;;;;;;5062390;28;20076;-75
